Terminal Aerodrome Forecast
Issued by NWS Lake Charles, LA

Home | Current Version | Previous Version | Text Only | Print | Product List | Glossary On
Versions: 1 2 3 4 5 6 7 8 9 10 11 12 13 14 15 16 17 18 19 20 21 22 23 24
000
FTUS44 KLCH 300117 AAB
TAFBPT
TAF AMD
KBPT 300117Z 3001/3024 VRB05KT 3SM SHRA BKN016
      TEMPO 3001/3004 SCT016 OVC025
     FM300400 19010KT P6SM VCSH OVC015
     FM301000 28008KT P6SM BKN025=

USA.gov is the U.S. government's official web portal to all federal, state and local government web resources and services.